Terminal Aerodrome Forecast
Issued by NWS

Home | Current Version | Previous Version | Text Only | Print | Product List | Glossary On
Versions: 1 2 3 4 5 6 7 8 9 10 11 12 13 14 15 16 17 18 19 20 21 22 23
762
FTUS43 KDLH 081131
TAFHYR
TAF
KHYR 081131Z 0812/0912 VRB04KT 4SM -SN BR SCT008 OVC023
      TEMPO 0812/0814 2SM -SHSN BR OVC015
     FM081400 30006KT 5SM -SHSN BR OVC015
     FM090000 31008KT P6SM VCSH OVC018=

USA.gov is the U.S. government's official web portal to all federal, state and local government web resources and services.